sensor_id;sensor_type;location;lat;lon;timestamp;temperature;humidity
51011;DHT22;37038;50.182;8.624;2024-01-15T00:00:18;-2.60;99.90
51011;DHT22;37038;50.182;8.624;2024-01-15T00:03:09;-2.60;99.90
51011;DHT22;37038;50.182;8.624;2024-01-15T00:05:58;-2.60;99.90
51011;DHT22;37038;50.182;8.624;2024-01-15T00:08:46;-2.60;99.90
51011;DHT22;37038;50.182;8.624;2024-01-15T00:11:35;-2.60;99.90
51011;DHT22;37038;50.182;8.624;2024-01-15T00:14:28;-2.70;99.90
51011;DHT22;37038;50.182;8.624;2024-01-15T00:17:23;-2.70;99.90
51011;DHT22;37038;50.182;8.624;2024-01-15T00:20:14;-2.60;99.90
51011;DHT22;37038;50.182;8.624;2024-01-15T00:23:03;-2.60;99.90
51011;DHT22;37038;50.182;8.624;2024-01-15T00:25:53;-2.70;99.90
51011;DHT22;37038;50.182;8.624;2024-01-15T00:28:42;-2.70;99.90
51011;DHT22;37038;50.182;8.624;2024-01-15T00:31:30;-2.70;99.90
51011;DHT22;37038;50.182;8.624;2024-01-15T00:34:19;-2.70;99.90
51011;DHT22;37038;50.182;8.624;2024-01-15T00:37:18;-2.70;99.90
51011;DHT22;37038;50.182;8.624;2024-01-15T00:40:10;-2.60;99.90
51011;DHT22;37038;50.182;8.624;2024-01-15T00:42:59;-2.60;99.90
51011;DHT22;37038;50.182;8.624;2024-01-15T00:45:47;-2.70;99.90
51011;DHT22;37038;50.182;8.624;2024-01-15T00:48:38;-2.70;99.90
51011;DHT22;37038;50.182;8.624;2024-01-15T00:51:31;-2.70;99.90
51011;DHT22;37038;50.182;8.624;2024-01-15T00:54:22;-2.70;99.90
51011;DHT22;37038;50.182;8.624;2024-01-15T00:57:11;-2.60;99.90
51011;DHT22;37038;50.182;8.624;2024-01-15T00:59:59;-2.70;99.90
51011;DHT22;37038;50.182;8.624;2024-01-15T01:02:53;-2.70;99.90
51011;DHT22;37038;50.182;8.624;2024-01-15T01:05:41;-2.70;99.90
51011;DHT22;37038;50.182;8.624;2024-01-15T01:08:31;-2.70;99.90
51011;DHT22;37038;50.182;8.624;2024-01-15T01:11:19;-2.60;99.90
51011;DHT22;37038;50.182;8.624;2024-01-15T01:14:13;-2.60;99.90
51011;DHT22;37038;50.182;8.624;2024-01-15T01:17:02;-2.60;99.90
51011;DHT22;37038;50.182;8.624;2024-01-15T01:19:53;-2.60;99.90
51011;DHT22;37038;50.182;8.624;2024-01-15T01:22:41;-2.60;99.90
51011;DHT22;37038;50.182;8.624;2024-01-15T01:25:30;-2.60;99.90
51011;DHT22;37038;50.182;8.624;2024-01-15T01:28:18;-2.60;99.90
51011;DHT22;37038;50.182;8.624;2024-01-15T01:31:06;-2.60;99.90
51011;DHT22;37038;50.182;8.624;2024-01-15T01:33:57;-2.60;99.90
51011;DHT22;37038;50.182;8.624;2024-01-15T01:36:45;-2.60;99.90
51011;DHT22;37038;50.182;8.624;2024-01-15T01:39:39;-2.50;99.90
51011;DHT22;37038;50.182;8.624;2024-01-15T01:42:28;-2.50;99.90
51011;DHT22;37038;50.182;8.624;2024-01-15T01:45:16;-2.50;99.90
51011;DHT22;37038;50.182;8.624;2024-01-15T01:48:05;-2.50;99.90
51011;DHT22;37038;50.182;8.624;2024-01-15T01:50:57;-2.50;99.90
51011;DHT22;37038;50.182;8.624;2024-01-15T01:53:46;-2.40;99.90
51011;DHT22;37038;50.182;8.624;2024-01-15T01:56:37;-2.40;99.90
51011;DHT22;37038;50.182;8.624;2024-01-15T01:59:27;-2.30;99.90
51011;DHT22;37038;50.182;8.624;2024-01-15T02:02:17;-2.30;89.30
51011;DHT22;37038;50.182;8.624;2024-01-15T02:05:06;-2.30;66.80
51011;DHT22;37038;50.182;8.624;2024-01-15T02:07:55;-2.30;49.80
51011;DHT22;37038;50.182;8.624;2024-01-15T02:10:44;-2.30;43.40
51011;DHT22;37038;50.182;8.624;2024-01-15T02:13:32;-2.20;29.80
51011;DHT22;37038;50.182;8.624;2024-01-15T02:16:21;-2.20;7.20
51011;DHT22;37038;50.182;8.624;2024-01-15T02:19:17;-2.20;1.90
51011;DHT22;37038;50.182;8.624;2024-01-15T02:22:06;-2.20;1.00
51011;DHT22;37038;50.182;8.624;2024-01-15T02:24:55;-2.20;1.00
51011;DHT22;37038;50.182;8.624;2024-01-15T02:27:46;-2.20;1.00
51011;DHT22;37038;50.182;8.624;2024-01-15T02:30:39;-2.20;1.00
51011;DHT22;37038;50.182;8.624;2024-01-15T02:33:28;-2.10;1.00
51011;DHT22;37038;50.182;8.624;2024-01-15T02:36:22;-2.20;1.00
51011;DHT22;37038;50.182;8.624;2024-01-15T02:39:10;-2.20;1.00
51011;DHT22;37038;50.182;8.624;2024-01-15T02:41:59;-2.10;7.00
51011;DHT22;37038;50.182;8.624;2024-01-15T02:44:47;-2.20;17.90
51011;DHT22;37038;50.182;8.624;2024-01-15T02:47:39;-2.10;1.00
51011;DHT22;37038;50.182;8.624;2024-01-15T02:50:30;-2.10;15.90
51011;DHT22;37038;50.182;8.624;2024-01-15T02:53:19;-2.20;99.90
51011;DHT22;37038;50.182;8.624;2024-01-15T02:56:40;-2.40;99.90
51011;DHT22;37038;50.182;8.624;2024-01-15T02:59:33;-2.30;99.90
51011;DHT22;37038;50.182;8.624;2024-01-15T03:02:21;-2.20;99.90
51011;DHT22;37038;50.182;8.624;2024-01-15T03:05:11;-2.20;99.90
51011;DHT22;37038;50.182;8.624;2024-01-15T03:08:00;-2.20;99.90
51011;DHT22;37038;50.182;8.624;2024-01-15T03:10:49;-2.10;99.90
51011;DHT22;37038;50.182;8.624;2024-01-15T03:13:38;-2.10;99.90
51011;DHT22;37038;50.182;8.624;2024-01-15T03:16:29;-2.10;99.90
51011;DHT22;37038;50.182;8.624;2024-01-15T03:19:18;-2.00;99.90
51011;DHT22;37038;50.182;8.624;2024-01-15T03:22:10;-2.00;99.90
51011;DHT22;37038;50.182;8.624;2024-01-15T03:25:01;-1.90;99.90
51011;DHT22;37038;50.182;8.624;2024-01-15T03:27:50;-2.00;99.90
51011;DHT22;37038;50.182;8.624;2024-01-15T03:30:41;-2.00;99.90
51011;DHT22;37038;50.182;8.624;2024-01-15T03:33:31;-1.90;94.60
51011;DHT22;37038;50.182;8.624;2024-01-15T03:36:20;-1.90;77.70
51011;DHT22;37038;50.182;8.624;2024-01-15T03:39:08;-1.90;99.90
51011;DHT22;37038;50.182;8.624;2024-01-15T03:41:57;-2.10;99.90
51011;DHT22;37038;50.182;8.624;2024-01-15T03:44:47;-2.10;99.90
51011;DHT22;37038;50.182;8.624;2024-01-15T03:47:36;-2.10;99.90
51011;DHT22;37038;50.182;8.624;2024-01-15T03:50:25;-2.00;99.90
51011;DHT22;37038;50.182;8.624;2024-01-15T03:53:13;-2.00;99.90
51011;DHT22;37038;50.182;8.624;2024-01-15T03:56:06;-2.00;99.90
51011;DHT22;37038;50.182;8.624;2024-01-15T03:58:54;-2.00;99.90
51011;DHT22;37038;50.182;8.624;2024-01-15T04:01:49;-2.10;99.90
51011;DHT22;37038;50.182;8.624;2024-01-15T04:04:45;-2.20;99.90
51011;DHT22;37038;50.182;8.624;2024-01-15T04:07:36;-2.10;99.90
51011;DHT22;37038;50.182;8.624;2024-01-15T04:10:27;-2.10;99.90
51011;DHT22;37038;50.182;8.624;2024-01-15T04:13:15;-2.10;99.90
51011;DHT22;37038;50.182;8.624;2024-01-15T04:16:08;-2.10;99.90
51011;DHT22;37038;50.182;8.624;2024-01-15T04:18:56;-2.00;99.90
51011;DHT22;37038;50.182;8.624;2024-01-15T04:21:47;-1.90;99.90
51011;DHT22;37038;50.182;8.624;2024-01-15T04:24:38;-1.80;99.90
51011;DHT22;37038;50.182;8.624;2024-01-15T04:27:28;-1.80;99.10
51011;DHT22;37038;50.182;8.624;2024-01-15T04:30:25;-1.80;99.90
51011;DHT22;37038;50.182;8.624;2024-01-15T04:33:16;-1.80;99.90
51011;DHT22;37038;50.182;8.624;2024-01-15T04:36:07;-1.80;99.90
51011;DHT22;37038;50.182;8.624;2024-01-15T04:38:56;-1.80;99.90
51011;DHT22;37038;50.182;8.624;2024-01-15T04:41:44;-1.80;99.90
51011;DHT22;37038;50.182;8.624;2024-01-15T04:44:33;-1.80;99.90
51011;DHT22;37038;50.182;8.624;2024-01-15T04:47:21;-1.80;99.90
51011;DHT22;37038;50.182;8.624;2024-01-15T04:50:09;-1.80;99.90
51011;DHT22;37038;50.182;8.624;2024-01-15T04:53:00;-1.80;99.90
51011;DHT22;37038;50.182;8.624;2024-01-15T04:55:49;-1.80;99.90
51011;DHT22;37038;50.182;8.624;2024-01-15T04:58:39;-1.80;99.90
51011;DHT22;37038;50.182;8.624;2024-01-15T05:01:33;-1.80;99.90
51011;DHT22;37038;50.182;8.624;2024-01-15T05:04:22;-1.70;99.90
51011;DHT22;37038;50.182;8.624;2024-01-15T05:07:14;-1.70;99.90
51011;DHT22;37038;50.182;8.624;2024-01-15T05:10:05;-1.70;99.90
51011;DHT22;37038;50.182;8.624;2024-01-15T05:12:56;-1.70;99.90
51011;DHT22;37038;50.182;8.624;2024-01-15T05:15:47;-1.60;99.90
51011;DHT22;37038;50.182;8.624;2024-01-15T05:18:36;-1.70;99.90
51011;DHT22;37038;50.182;8.624;2024-01-15T05:21:27;-1.60;99.30
51011;DHT22;37038;50.182;8.624;2024-01-15T05:24:16;-1.60;99.90
51011;DHT22;37038;50.182;8.624;2024-01-15T05:27:04;-1.60;99.90
51011;DHT22;37038;50.182;8.624;2024-01-15T05:29:52;-1.70;99.90
51011;DHT22;37038;50.182;8.624;2024-01-15T05:32:41;-1.60;99.90
51011;DHT22;37038;50.182;8.624;2024-01-15T05:35:29;-1.60;99.90
51011;DHT22;37038;50.182;8.624;2024-01-15T05:38:17;-1.70;99.90
51011;DHT22;37038;50.182;8.624;2024-01-15T05:41:05;-1.70;99.90
51011;DHT22;37038;50.182;8.624;2024-01-15T05:43:54;-1.70;99.90
51011;DHT22;37038;50.182;8.624;2024-01-15T05:46:42;-1.70;99.90
51011;DHT22;37038;50.182;8.624;2024-01-15T05:49:30;-1.70;99.90
51011;DHT22;37038;50.182;8.624;2024-01-15T05:52:19;-1.70;99.90
51011;DHT22;37038;50.182;8.624;2024-01-15T05:55:10;-1.60;99.90
51011;DHT22;37038;50.182;8.624;2024-01-15T05:57:58;-1.70;99.90
51011;DHT22;37038;50.182;8.624;2024-01-15T06:00:47;-1.70;99.90
51011;DHT22;37038;50.182;8.624;2024-01-15T06:03:35;-1.70;99.90
51011;DHT22;37038;50.182;8.624;2024-01-15T06:06:30;-1.70;99.90
51011;DHT22;37038;50.182;8.624;2024-01-15T06:09:19;-1.70;99.90
51011;DHT22;37038;50.182;8.624;2024-01-15T06:12:10;-1.60;99.90
51011;DHT22;37038;50.182;8.624;2024-01-15T06:14:59;-1.60;99.90
51011;DHT22;37038;50.182;8.624;2024-01-15T06:17:47;-1.60;99.90
51011;DHT22;37038;50.182;8.624;2024-01-15T06:20:36;-1.70;99.90
51011;DHT22;37038;50.182;8.624;2024-01-15T06:23:26;-1.70;99.90
51011;DHT22;37038;50.182;8.624;2024-01-15T06:26:14;-1.70;99.90
51011;DHT22;37038;50.182;8.624;2024-01-15T06:29:03;-1.70;99.90
51011;DHT22;37038;50.182;8.624;2024-01-15T06:31:51;-1.60;99.90
51011;DHT22;37038;50.182;8.624;2024-01-15T06:34:40;-1.60;99.90
51011;DHT22;37038;50.182;8.624;2024-01-15T06:37:31;-1.60;99.90
51011;DHT22;37038;50.182;8.624;2024-01-15T06:40:20;-1.50;99.90
51011;DHT22;37038;50.182;8.624;2024-01-15T06:43:08;-1.50;99.90
51011;DHT22;37038;50.182;8.624;2024-01-15T06:45:59;-1.60;99.90
51011;DHT22;37038;50.182;8.624;2024-01-15T06:48:54;-1.60;99.90
51011;DHT22;37038;50.182;8.624;2024-01-15T06:51:42;-1.60;99.90
51011;DHT22;37038;50.182;8.624;2024-01-15T06:54:36;-1.60;99.90
51011;DHT22;37038;50.182;8.624;2024-01-15T06:57:29;-1.60;99.90
51011;DHT22;37038;50.182;8.624;2024-01-15T07:00:18;-1.60;99.90
51011;DHT22;37038;50.182;8.624;2024-01-15T07:03:09;-1.60;99.90
51011;DHT22;37038;50.182;8.624;2024-01-15T07:05:58;-1.60;99.90
51011;DHT22;37038;50.182;8.624;2024-01-15T07:08:46;-1.60;99.90
51011;DHT22;37038;50.182;8.624;2024-01-15T07:11:35;-1.60;99.90
51011;DHT22;37038;50.182;8.624;2024-01-15T07:14:24;-1.60;99.90
51011;DHT22;37038;50.182;8.624;2024-01-15T07:17:12;-1.60;99.90
51011;DHT22;37038;50.182;8.624;2024-01-15T07:20:00;-1.70;99.90
51011;DHT22;37038;50.182;8.624;2024-01-15T07:22:55;-1.60;99.90
51011;DHT22;37038;50.182;8.624;2024-01-15T07:25:46;-1.50;99.90
51011;DHT22;37038;50.182;8.624;2024-01-15T07:28:36;-1.50;99.90
51011;DHT22;37038;50.182;8.624;2024-01-15T07:31:38;-1.50;99.90
51011;DHT22;37038;50.182;8.624;2024-01-15T07:34:28;-1.50;99.90
51011;DHT22;37038;50.182;8.624;2024-01-15T07:37:20;-1.50;99.90
51011;DHT22;37038;50.182;8.624;2024-01-15T07:40:13;-1.40;99.90
51011;DHT22;37038;50.182;8.624;2024-01-15T07:43:33;-1.50;99.90
51011;DHT22;37038;50.182;8.624;2024-01-15T07:46:22;-1.40;99.90
51011;DHT22;37038;50.182;8.624;2024-01-15T07:49:10;-1.40;99.90
51011;DHT22;37038;50.182;8.624;2024-01-15T07:52:01;-1.40;99.90
51011;DHT22;37038;50.182;8.624;2024-01-15T07:54:50;-1.20;99.90
51011;DHT22;37038;50.182;8.624;2024-01-15T07:57:43;-1.20;99.90
51011;DHT22;37038;50.182;8.624;2024-01-15T08:00:39;-1.20;99.90
51011;DHT22;37038;50.182;8.624;2024-01-15T08:03:32;-1.10;99.90
51011;DHT22;37038;50.182;8.624;2024-01-15T08:06:51;-1.10;99.90
51011;DHT22;37038;50.182;8.624;2024-01-15T08:09:40;-1.20;99.90
51011;DHT22;37038;50.182;8.624;2024-01-15T08:12:39;-1.20;99.90
51011;DHT22;37038;50.182;8.624;2024-01-15T08:15:29;-1.20;99.90
51011;DHT22;37038;50.182;8.624;2024-01-15T08:18:20;-1.20;99.90
51011;DHT22;37038;50.182;8.624;2024-01-15T08:21:14;-1.10;99.90
51011;DHT22;37038;50.182;8.624;2024-01-15T08:24:02;-1.10;99.90
51011;DHT22;37038;50.182;8.624;2024-01-15T08:26:51;-1.10;99.90
51011;DHT22;37038;50.182;8.624;2024-01-15T08:29:39;-1.00;99.90
51011;DHT22;37038;50.182;8.624;2024-01-15T08:32:27;-1.00;99.90
51011;DHT22;37038;50.182;8.624;2024-01-15T08:35:16;-0.90;99.90
51011;DHT22;37038;50.182;8.624;2024-01-15T08:38:06;-1.00;99.90
51011;DHT22;37038;50.182;8.624;2024-01-15T08:40:59;-1.00;99.90
51011;DHT22;37038;50.182;8.624;2024-01-15T08:43:50;-1.10;99.90
51011;DHT22;37038;50.182;8.624;2024-01-15T08:46:41;-1.00;99.90
51011;DHT22;37038;50.182;8.624;2024-01-15T08:49:31;-1.00;99.90
51011;DHT22;37038;50.182;8.624;2024-01-15T08:52:23;-0.90;99.90
51011;DHT22;37038;50.182;8.624;2024-01-15T08:55:12;-0.80;99.90
51011;DHT22;37038;50.182;8.624;2024-01-15T08:58:01;-0.70;99.90
51011;DHT22;37038;50.182;8.624;2024-01-15T09:00:51;-0.60;99.90
51011;DHT22;37038;50.182;8.624;2024-01-15T09:03:45;-0.70;99.90
51011;DHT22;37038;50.182;8.624;2024-01-15T09:06:46;-0.60;99.90
51011;DHT22;37038;50.182;8.624;2024-01-15T09:09:35;-0.50;52.90
51011;DHT22;37038;50.182;8.624;2024-01-15T09:12:28;-0.40;1.00
51011;DHT22;37038;50.182;8.624;2024-01-15T09:15:17;-0.40;1.00
51011;DHT22;37038;50.182;8.624;2024-01-15T09:18:06;0.30;1.00
51011;DHT22;37038;50.182;8.624;2024-01-15T09:20:55;0.60;1.00
51011;DHT22;37038;50.182;8.624;2024-01-15T09:23:43;0.70;1.00
51011;DHT22;37038;50.182;8.624;2024-01-15T09:26:32;1.00;99.90
51011;DHT22;37038;50.182;8.624;2024-01-15T09:29:20;1.10;99.90
51011;DHT22;37038;50.182;8.624;2024-01-15T09:32:08;1.20;72.10
51011;DHT22;37038;50.182;8.624;2024-01-15T09:34:57;1.20;99.90
51011;DHT22;37038;50.182;8.624;2024-01-15T09:37:45;1.40;99.90
51011;DHT22;37038;50.182;8.624;2024-01-15T09:40:38;1.40;1.00
51011;DHT22;37038;50.182;8.624;2024-01-15T09:43:26;1.50;1.00
51011;DHT22;37038;50.182;8.624;2024-01-15T09:46:15;1.40;1.00
51011;DHT22;37038;50.182;8.624;2024-01-15T09:49:04;1.70;99.90
51011;DHT22;37038;50.182;8.624;2024-01-15T09:51:55;1.60;99.90
51011;DHT22;37038;50.182;8.624;2024-01-15T09:54:59;1.20;99.90
51011;DHT22;37038;50.182;8.624;2024-01-15T09:57:52;0.80;1.00
51011;DHT22;37038;50.182;8.624;2024-01-15T10:00:41;0.50;1.00
51011;DHT22;37038;50.182;8.624;2024-01-15T10:03:31;0.50;1.00
51011;DHT22;37038;50.182;8.624;2024-01-15T10:06:21;0.40;1.00
51011;DHT22;37038;50.182;8.624;2024-01-15T10:09:10;0.40;1.00
51011;DHT22;37038;50.182;8.624;2024-01-15T10:11:59;0.40;1.00
51011;DHT22;37038;50.182;8.624;2024-01-15T10:14:47;0.40;1.00
51011;DHT22;37038;50.182;8.624;2024-01-15T10:17:38;0.40;1.00
51011;DHT22;37038;50.182;8.624;2024-01-15T10:20:34;0.60;1.00
51011;DHT22;37038;50.182;8.624;2024-01-15T10:23:22;0.70;99.90
51011;DHT22;37038;50.182;8.624;2024-01-15T10:26:11;0.80;99.90
51011;DHT22;37038;50.182;8.624;2024-01-15T10:29:02;0.70;99.90
51011;DHT22;37038;50.182;8.624;2024-01-15T10:31:50;0.80;99.90
51011;DHT22;37038;50.182;8.624;2024-01-15T10:34:39;0.70;99.90
51011;DHT22;37038;50.182;8.624;2024-01-15T10:37:33;0.90;99.90
51011;DHT22;37038;50.182;8.624;2024-01-15T10:40:21;0.90;99.90
51011;DHT22;37038;50.182;8.624;2024-01-15T10:43:12;1.10;99.90
51011;DHT22;37038;50.182;8.624;2024-01-15T10:46:00;1.20;99.90
51011;DHT22;37038;50.182;8.624;2024-01-15T10:48:49;1.50;99.90
51011;DHT22;37038;50.182;8.624;2024-01-15T10:51:38;1.20;99.90
51011;DHT22;37038;50.182;8.624;2024-01-15T10:54:27;1.00;99.90
51011;DHT22;37038;50.182;8.624;2024-01-15T10:57:20;1.30;99.90
51011;DHT22;37038;50.182;8.624;2024-01-15T11:00:12;1.30;49.60
51011;DHT22;37038;50.182;8.624;2024-01-15T11:03:06;1.60;99.90
51011;DHT22;37038;50.182;8.624;2024-01-15T11:06:15;1.40;1.00
51011;DHT22;37038;50.182;8.624;2024-01-15T11:09:07;1.30;28.00
51011;DHT22;37038;50.182;8.624;2024-01-15T11:12:07;1.60;1.00
51011;DHT22;37038;50.182;8.624;2024-01-15T11:15:05;1.40;1.00
51011;DHT22;37038;50.182;8.624;2024-01-15T11:18:03;1.60;99.90
51011;DHT22;37038;50.182;8.624;2024-01-15T11:24:05;1.30;28.10
51011;DHT22;37038;50.182;8.624;2024-01-15T11:26:54;1.10;99.90
51011;DHT22;37038;50.182;8.624;2024-01-15T11:29:42;1.10;1.00
51011;DHT22;37038;50.182;8.624;2024-01-15T11:32:34;1.10;1.00
51011;DHT22;37038;50.182;8.624;2024-01-15T11:35:23;1.20;99.90
51011;DHT22;37038;50.182;8.624;2024-01-15T11:38:38;1.40;1.00
51011;DHT22;37038;50.182;8.624;2024-01-15T11:41:27;1.50;1.00
51011;DHT22;37038;50.182;8.624;2024-01-15T11:44:17;1.60;21.40
51011;DHT22;37038;50.182;8.624;2024-01-15T11:47:09;1.70;1.00
51011;DHT22;37038;50.182;8.624;2024-01-15T11:50:04;1.70;1.00
51011;DHT22;37038;50.182;8.624;2024-01-15T11:53:00;1.80;1.00
51011;DHT22;37038;50.182;8.624;2024-01-15T11:55:58;1.70;1.00
51011;DHT22;37038;50.182;8.624;2024-01-15T11:58:47;1.70;1.40
51011;DHT22;37038;50.182;8.624;2024-01-15T12:01:40;1.30;99.90
51011;DHT22;37038;50.182;8.624;2024-01-15T12:04:30;1.30;1.00
51011;DHT22;37038;50.182;8.624;2024-01-15T12:07:18;1.30;1.00
51011;DHT22;37038;50.182;8.624;2024-01-15T12:10:13;1.30;1.00
51011;DHT22;37038;50.182;8.624;2024-01-15T12:13:13;1.30;1.00
51011;DHT22;37038;50.182;8.624;2024-01-15T12:16:07;1.40;1.00
51011;DHT22;37038;50.182;8.624;2024-01-15T12:19:00;1.40;1.00
51011;DHT22;37038;50.182;8.624;2024-01-15T12:21:51;1.40;1.00
51011;DHT22;37038;50.182;8.624;2024-01-15T12:24:42;1.20;1.00
51011;DHT22;37038;50.182;8.624;2024-01-15T12:27:34;1.30;1.00
51011;DHT22;37038;50.182;8.624;2024-01-15T12:30:23;1.30;1.00
51011;DHT22;37038;50.182;8.624;2024-01-15T12:33:18;1.40;1.00
51011;DHT22;37038;50.182;8.624;2024-01-15T12:36:09;1.50;1.00
51011;DHT22;37038;50.182;8.624;2024-01-15T12:39:02;1.60;1.00
51011;DHT22;37038;50.182;8.624;2024-01-15T12:41:59;1.70;99.90
51011;DHT22;37038;50.182;8.624;2024-01-15T12:44:56;1.70;99.90
51011;DHT22;37038;50.182;8.624;2024-01-15T12:47:50;1.90;99.90
51011;DHT22;37038;50.182;8.624;2024-01-15T12:51:08;1.90;99.90
51011;DHT22;37038;50.182;8.624;2024-01-15T12:54:05;1.80;99.90
51011;DHT22;37038;50.182;8.624;2024-01-15T12:56:58;1.90;99.90
51011;DHT22;37038;50.182;8.624;2024-01-15T12:59:47;1.70;99.90
51011;DHT22;37038;50.182;8.624;2024-01-15T13:02:44;1.80;99.90
51011;DHT22;37038;50.182;8.624;2024-01-15T13:05:46;1.90;99.90
51011;DHT22;37038;50.182;8.624;2024-01-15T13:08:35;1.90;66.70
51011;DHT22;37038;50.182;8.624;2024-01-15T13:11:23;1.80;1.00
51011;DHT22;37038;50.182;8.624;2024-01-15T13:14:18;1.90;1.00
51011;DHT22;37038;50.182;8.624;2024-01-15T13:17:06;1.80;1.00
51011;DHT22;37038;50.182;8.624;2024-01-15T13:19:57;1.60;99.90
51011;DHT22;37038;50.182;8.624;2024-01-15T13:22:52;1.70;83.40
51011;DHT22;37038;50.182;8.624;2024-01-15T13:25:43;1.70;1.00
51011;DHT22;37038;50.182;8.624;2024-01-15T13:28:48;1.80;67.00
51011;DHT22;37038;50.182;8.624;2024-01-15T13:31:49;1.80;89.30
51011;DHT22;37038;50.182;8.624;2024-01-15T13:34:42;1.60;99.90
51011;DHT22;37038;50.182;8.624;2024-01-15T13:37:44;1.60;99.90
51011;DHT22;37038;50.182;8.624;2024-01-15T13:40:45;1.80;99.90
51011;DHT22;37038;50.182;8.624;2024-01-15T13:43:45;1.90;99.90
51011;DHT22;37038;50.182;8.624;2024-01-15T13:46:46;2.10;99.90
51011;DHT22;37038;50.182;8.624;2024-01-15T13:49:45;2.00;1.00
51011;DHT22;37038;50.182;8.624;2024-01-15T13:55:56;2.00;1.00
51011;DHT22;37038;50.182;8.624;2024-01-15T13:58:49;2.40;99.90
51011;DHT22;37038;50.182;8.624;2024-01-15T14:01:51;2.60;43.80
51011;DHT22;37038;50.182;8.624;2024-01-15T14:04:44;2.50;99.90
51011;DHT22;37038;50.182;8.624;2024-01-15T14:07:38;2.90;1.00
51011;DHT22;37038;50.182;8.624;2024-01-15T14:10:27;3.60;1.00
51011;DHT22;37038;50.182;8.624;2024-01-15T14:13:17;2.80;99.90
51011;DHT22;37038;50.182;8.624;2024-01-15T14:16:07;2.30;1.00
51011;DHT22;37038;50.182;8.624;2024-01-15T14:19:03;2.20;99.90
51011;DHT22;37038;50.182;8.624;2024-01-15T14:21:54;2.40;1.00
51011;DHT22;37038;50.182;8.624;2024-01-15T14:24:47;2.50;99.90
51011;DHT22;37038;50.182;8.624;2024-01-15T14:27:39;2.60;99.90
51011;DHT22;37038;50.182;8.624;2024-01-15T14:30:35;2.80;1.00
51011;DHT22;37038;50.182;8.624;2024-01-15T14:33:27;2.90;99.90
51011;DHT22;37038;50.182;8.624;2024-01-15T14:36:40;3.10;99.90
51011;DHT22;37038;50.182;8.624;2024-01-15T14:39:42;3.90;1.00
51011;DHT22;37038;50.182;8.624;2024-01-15T14:42:41;4.00;1.00
51011;DHT22;37038;50.182;8.624;2024-01-15T14:45:33;3.50;1.00
51011;DHT22;37038;50.182;8.624;2024-01-15T14:48:46;3.60;1.00
51011;DHT22;37038;50.182;8.624;2024-01-15T14:51:44;3.80;1.00
51011;DHT22;37038;50.182;8.624;2024-01-15T14:54:39;3.80;1.00
51011;DHT22;37038;50.182;8.624;2024-01-15T14:57:28;3.50;1.00
51011;DHT22;37038;50.182;8.624;2024-01-15T15:00:19;2.50;1.00
51011;DHT22;37038;50.182;8.624;2024-01-15T15:03:10;2.50;1.00
51011;DHT22;37038;50.182;8.624;2024-01-15T15:06:15;2.40;1.00
51011;DHT22;37038;50.182;8.624;2024-01-15T15:09:20;2.30;99.90
51011;DHT22;37038;50.182;8.624;2024-01-15T15:12:18;2.10;99.90
51011;DHT22;37038;50.182;8.624;2024-01-15T15:15:15;2.00;1.00
51011;DHT22;37038;50.182;8.624;2024-01-15T15:18:29;2.00;99.90
51011;DHT22;37038;50.182;8.624;2024-01-15T15:21:25;1.80;39.70
51011;DHT22;37038;50.182;8.624;2024-01-15T15:24:21;1.80;99.90
51011;DHT22;37038;50.182;8.624;2024-01-15T15:27:14;1.80;99.90
51011;DHT22;37038;50.182;8.624;2024-01-15T15:30:08;1.90;99.90
51011;DHT22;37038;50.182;8.624;2024-01-15T15:32:57;1.80;99.90
51011;DHT22;37038;50.182;8.624;2024-01-15T15:35:58;1.70;1.00
51011;DHT22;37038;50.182;8.624;2024-01-15T15:39:11;1.70;99.90
51011;DHT22;37038;50.182;8.624;2024-01-15T15:42:16;1.60;99.90
51011;DHT22;37038;50.182;8.624;2024-01-15T15:45:06;1.60;1.00
51011;DHT22;37038;50.182;8.624;2024-01-15T15:47:58;1.70;1.00
51011;DHT22;37038;50.182;8.624;2024-01-15T15:50:58;1.50;1.00
51011;DHT22;37038;50.182;8.624;2024-01-15T15:54:01;1.30;52.60
51011;DHT22;37038;50.182;8.624;2024-01-15T15:57:03;1.20;1.00
51011;DHT22;37038;50.182;8.624;2024-01-15T15:59:53;1.20;99.90
51011;DHT22;37038;50.182;8.624;2024-01-15T16:02:42;1.10;99.90
51011;DHT22;37038;50.182;8.624;2024-01-15T16:05:33;1.10;99.90
51011;DHT22;37038;50.182;8.624;2024-01-15T16:08:39;1.20;67.90
51011;DHT22;37038;50.182;8.624;2024-01-15T16:16:16;1.20;99.90
51011;DHT22;37038;50.182;8.624;2024-01-15T16:19:40;1.20;1.00
51011;DHT22;37038;50.182;8.624;2024-01-15T16:23:52;1.20;99.90
51011;DHT22;37038;50.182;8.624;2024-01-15T16:28:05;1.10;99.90
51011;DHT22;37038;50.182;8.624;2024-01-15T16:35:15;1.20;99.90
51011;DHT22;37038;50.182;8.624;2024-01-15T16:38:54;1.10;99.90
51011;DHT22;37038;50.182;8.624;2024-01-15T16:46:19;1.00;1.00
51011;DHT22;37038;50.182;8.624;2024-01-15T16:49:19;1.00;56.10
51011;DHT22;37038;50.182;8.624;2024-01-15T16:53:18;1.00;99.90
51011;DHT22;37038;50.182;8.624;2024-01-15T16:56:21;0.90;1.00
51011;DHT22;37038;50.182;8.624;2024-01-15T16:59:15;1.00;1.00
51011;DHT22;37038;50.182;8.624;2024-01-15T17:02:14;0.90;99.90
51011;DHT22;37038;50.182;8.624;2024-01-15T17:05:11;1.00;99.90
51011;DHT22;37038;50.182;8.624;2024-01-15T17:08:08;1.00;99.90
51011;DHT22;37038;50.182;8.624;2024-01-15T17:10:59;1.00;99.90
51011;DHT22;37038;50.182;8.624;2024-01-15T17:13:50;1.00;1.00
51011;DHT22;37038;50.182;8.624;2024-01-15T17:16:39;1.00;99.90
51011;DHT22;37038;50.182;8.624;2024-01-15T17:19:30;1.00;1.00
51011;DHT22;37038;50.182;8.624;2024-01-15T17:22:25;1.10;40.40
51011;DHT22;37038;50.182;8.624;2024-01-15T17:25:16;1.00;1.00
51011;DHT22;37038;50.182;8.624;2024-01-15T17:28:07;1.00;1.00
51011;DHT22;37038;50.182;8.624;2024-01-15T17:30:56;0.90;99.90
51011;DHT22;37038;50.182;8.624;2024-01-15T17:33:46;1.00;1.00
51011;DHT22;37038;50.182;8.624;2024-01-15T17:36:35;0.90;1.00
51011;DHT22;37038;50.182;8.624;2024-01-15T17:39:26;0.90;99.90
51011;DHT22;37038;50.182;8.624;2024-01-15T17:42:14;0.90;99.90
51011;DHT22;37038;50.182;8.624;2024-01-15T17:45:04;0.80;1.00
51011;DHT22;37038;50.182;8.624;2024-01-15T17:47:56;0.90;1.00
51011;DHT22;37038;50.182;8.624;2024-01-15T17:50:53;0.90;99.90
51011;DHT22;37038;50.182;8.624;2024-01-15T17:53:46;0.90;99.90
51011;DHT22;37038;50.182;8.624;2024-01-15T17:56:38;0.80;1.00
51011;DHT22;37038;50.182;8.624;2024-01-15T17:59:29;0.90;1.00
51011;DHT22;37038;50.182;8.624;2024-01-15T18:02:18;1.00;1.00
51011;DHT22;37038;50.182;8.624;2024-01-15T18:05:06;0.90;1.00
51011;DHT22;37038;50.182;8.624;2024-01-15T18:08:02;1.10;1.00
51011;DHT22;37038;50.182;8.624;2024-01-15T18:10:54;1.10;99.90
51011;DHT22;37038;50.182;8.624;2024-01-15T18:13:47;0.90;1.00
51011;DHT22;37038;50.182;8.624;2024-01-15T18:16:41;1.00;1.00
51011;DHT22;37038;50.182;8.624;2024-01-15T18:19:31;0.90;1.00
51011;DHT22;37038;50.182;8.624;2024-01-15T18:22:25;0.90;99.90
51011;DHT22;37038;50.182;8.624;2024-01-15T18:25:14;1.10;99.90
51011;DHT22;37038;50.182;8.624;2024-01-15T18:28:03;1.20;99.90
51011;DHT22;37038;50.182;8.624;2024-01-15T18:30:55;1.10;99.90
51011;DHT22;37038;50.182;8.624;2024-01-15T18:33:58;1.00;99.90
51011;DHT22;37038;50.182;8.624;2024-01-15T18:36:49;1.00;99.90
51011;DHT22;37038;50.182;8.624;2024-01-15T18:39:44;1.10;89.30
51011;DHT22;37038;50.182;8.624;2024-01-15T18:42:33;1.10;1.00
51011;DHT22;37038;50.182;8.624;2024-01-15T18:45:32;1.20;1.00